sensor_id;sensor_type;location;lat;lon;timestamp;pressure;altitude;pressure_sealevel;temperature;humidity
35878;BME280;21982;49.804;24.072;2023-06-04T00:02:49;97795.91;;;12.41;39.90
35878;BME280;21982;49.804;24.072;2023-06-04T00:05:15;97714.59;;;12.04;39.94
35878;BME280;21982;49.804;24.072;2023-06-04T00:07:40;97765.84;;;12.40;39.96
35878;BME280;21982;49.804;24.072;2023-06-04T00:10:06;97695.84;;;11.91;39.81
35878;BME280;21982;49.804;24.072;2023-06-04T00:12:31;97767.69;;;12.40;39.67
35878;BME280;21982;49.804;24.072;2023-06-04T00:14:57;97748.94;;;12.27;40.10
35878;BME280;21982;49.804;24.072;2023-06-04T00:17:22;97693.59;;;11.73;39.76
35878;BME280;21982;49.804;24.072;2023-06-04T00:27:33;97754.72;;;12.30;40.13
35878;BME280;21982;49.804;24.072;2023-06-04T00:36:04;97454.84;;;10.29;39.94
35878;BME280;21982;49.804;24.072;2023-06-04T01:20:16;97730.00;;;11.50;41.77
35878;BME280;21982;49.804;24.072;2023-06-04T01:30:36;97238.47;;;8.46;42.24
35878;BME280;21982;49.804;24.072;2023-06-04T01:33:09;97518.94;;;10.16;42.06
35878;BME280;21982;49.804;24.072;2023-06-04T01:35:35;97615.94;;;10.69;42.26
35878;BME280;21982;49.804;24.072;2023-06-04T01:38:00;97693.88;;;11.19;42.30
35878;BME280;21982;49.804;24.072;2023-06-04T01:40:26;97660.13;;;10.84;42.07
35878;BME280;21982;49.804;24.072;2023-06-04T01:42:52;97723.50;;;11.23;42.41
35878;BME280;21982;49.804;24.072;2023-06-04T01:45:18;97663.59;;;10.84;42.60
35878;BME280;21982;49.804;24.072;2023-06-04T01:47:43;97734.75;;;11.25;42.55
35878;BME280;21982;49.804;24.072;2023-06-04T01:50:09;97646.97;;;10.75;42.86
35878;BME280;21982;49.804;24.072;2023-06-04T01:52:39;97548.22;;;10.15;42.50
35878;BME280;21982;49.804;24.072;2023-06-04T01:55:06;97730.34;;;11.17;43.10
35878;BME280;21982;49.804;24.072;2023-06-04T01:57:33;97658.31;;;10.69;43.20
35878;BME280;21982;49.804;24.072;2023-06-04T01:59:59;97710.50;;;10.98;43.21
35878;BME280;21982;49.804;24.072;2023-06-04T02:02:27;97610.13;;;10.36;43.02
35878;BME280;21982;49.804;24.072;2023-06-04T02:04:58;97732.28;;;11.08;43.03
35878;BME280;21982;49.804;24.072;2023-06-04T02:07:25;97575.06;;;9.89;43.27
35878;BME280;21982;49.804;24.072;2023-06-04T02:09:51;97692.38;;;10.72;43.35
35878;BME280;21982;49.804;24.072;2023-06-04T02:12:17;97723.28;;;10.95;43.49
35878;BME280;21982;49.804;24.072;2023-06-04T02:14:45;97728.94;;;10.92;43.39
35878;BME280;21982;49.804;24.072;2023-06-04T02:23:23;97407.81;;;8.58;44.15
35878;BME280;21982;49.804;24.072;2023-06-04T02:25:49;97677.22;;;10.44;44.07
35878;BME280;21982;49.804;24.072;2023-06-04T02:28:16;97727.63;;;10.73;44.45
35878;BME280;21982;49.804;24.072;2023-06-04T02:30:47;97616.75;;;9.87;44.18
35878;BME280;21982;49.804;24.072;2023-06-04T02:33:13;97729.06;;;10.75;44.09
35878;BME280;21982;49.804;24.072;2023-06-04T02:35:39;97726.44;;;10.75;44.21
35878;BME280;21982;49.804;24.072;2023-06-04T02:40:41;97464.19;;;8.96;44.31
35878;BME280;21982;49.804;24.072;2023-06-04T02:43:07;97425.59;;;8.95;44.17
35878;BME280;21982;49.804;24.072;2023-06-04T02:45:41;97749.50;;;10.90;43.92
35878;BME280;21982;49.804;24.072;2023-06-04T02:48:07;97495.28;;;9.39;43.96
35878;BME280;21982;49.804;24.072;2023-06-04T02:50:32;97730.66;;;10.85;43.74
35878;BME280;21982;49.804;24.072;2023-06-04T02:52:58;97747.97;;;10.95;44.06
35878;BME280;21982;49.804;24.072;2023-06-04T02:55:23;97688.78;;;10.65;43.80
35878;BME280;21982;49.804;24.072;2023-06-04T02:57:48;97742.13;;;11.00;43.43
35878;BME280;21982;49.804;24.072;2023-06-04T03:00:14;97599.50;;;10.14;44.22
35878;BME280;21982;49.804;24.072;2023-06-04T03:02:45;97740.84;;;11.11;44.00
35878;BME280;21982;49.804;24.072;2023-06-04T03:05:12;97749.44;;;11.13;43.79
35878;BME280;21982;49.804;24.072;2023-06-04T03:07:39;97674.56;;;10.66;43.44
35878;BME280;21982;49.804;24.072;2023-06-04T03:10:07;97753.84;;;11.20;43.46
35878;BME280;21982;49.804;24.072;2023-06-04T03:35:50;97758.25;;;11.57;42.87
35878;BME280;21982;49.804;24.072;2023-06-04T03:38:16;97755.25;;;11.75;42.96
35878;BME280;21982;49.804;24.072;2023-06-04T03:40:42;97735.66;;;11.76;42.70
35878;BME280;21982;49.804;24.072;2023-06-04T03:43:07;97754.69;;;11.94;42.63
35878;BME280;21982;49.804;24.072;2023-06-04T03:45:33;97420.78;;;9.96;42.76
35878;BME280;21982;49.804;24.072;2023-06-04T03:47:58;97744.91;;;11.95;42.46
35878;BME280;21982;49.804;24.072;2023-06-04T03:50:24;97588.25;;;11.01;42.61
35878;BME280;21982;49.804;24.072;2023-06-04T03:52:49;97415.41;;;10.04;42.48
35878;BME280;21982;49.804;24.072;2023-06-04T03:55:14;97752.72;;;12.18;42.28
35878;BME280;21982;49.804;24.072;2023-06-04T03:57:40;97767.91;;;12.24;42.37
35878;BME280;21982;49.804;24.072;2023-06-04T04:00:10;97648.50;;;11.58;42.46
35878;BME280;21982;49.804;24.072;2023-06-04T04:02:40;97771.16;;;12.40;42.32
35878;BME280;21982;49.804;24.072;2023-06-04T04:05:06;97728.16;;;12.30;42.27
35878;BME280;21982;49.804;24.072;2023-06-04T04:07:32;97690.47;;;12.20;42.15
35878;BME280;21982;49.804;24.072;2023-06-04T04:09:58;97760.34;;;12.63;42.12
35878;BME280;21982;49.804;24.072;2023-06-04T04:12:27;97755.19;;;12.77;41.95
35878;BME280;21982;49.804;24.072;2023-06-04T04:14:53;97746.81;;;12.80;41.67
35878;BME280;21982;49.804;24.072;2023-06-04T04:17:18;97727.91;;;12.68;42.31
35878;BME280;21982;49.804;24.072;2023-06-04T04:19:43;97754.91;;;12.93;41.51
35878;BME280;21982;49.804;24.072;2023-06-04T04:24:44;97768.25;;;12.99;41.67
35878;BME280;21982;49.804;24.072;2023-06-04T04:27:10;97551.72;;;11.69;41.61
35878;BME280;21982;49.804;24.072;2023-06-04T04:29:38;97666.34;;;12.64;41.39
35878;BME280;21982;49.804;24.072;2023-06-04T04:32:08;97745.22;;;13.34;41.22
35878;BME280;21982;49.804;24.072;2023-06-04T04:34:38;97737.72;;;13.45;41.11
35878;BME280;21982;49.804;24.072;2023-06-04T04:37:09;97752.66;;;13.80;40.84
35878;BME280;21982;49.804;24.072;2023-06-04T04:39:35;97689.06;;;13.51;40.95
35878;BME280;21982;49.804;24.072;2023-06-04T04:42:02;97722.13;;;13.76;40.68
35878;BME280;21982;49.804;24.072;2023-06-04T04:44:27;97591.75;;;12.94;40.80
35878;BME280;21982;49.804;24.072;2023-06-04T04:46:53;97665.38;;;13.28;40.88
35878;BME280;21982;49.804;24.072;2023-06-04T04:49:18;97665.28;;;13.43;40.66
35878;BME280;21982;49.804;24.072;2023-06-04T04:51:44;97682.09;;;13.50;40.78
35878;BME280;21982;49.804;24.072;2023-06-04T04:54:09;97662.03;;;13.54;40.50
35878;BME280;21982;49.804;24.072;2023-06-04T04:56:34;97741.56;;;14.24;40.72
35878;BME280;21982;49.804;24.072;2023-06-04T04:59:00;97666.69;;;13.93;40.41
35878;BME280;21982;49.804;24.072;2023-06-04T05:01:31;97671.81;;;13.94;40.18
35878;BME280;21982;49.804;24.072;2023-06-04T05:04:06;97505.34;;;12.70;40.19
35878;BME280;21982;49.804;24.072;2023-06-04T05:06:31;97722.31;;;14.35;40.04
35878;BME280;21982;49.804;24.072;2023-06-04T05:08:57;97521.56;;;13.29;40.21
35878;BME280;21982;49.804;24.072;2023-06-04T05:11:23;97735.75;;;14.75;39.83
35878;BME280;21982;49.804;24.072;2023-06-04T05:13:49;97472.09;;;13.35;39.56
35878;BME280;21982;49.804;24.072;2023-06-04T05:16:16;97659.84;;;15.04;39.62
35878;BME280;21982;49.804;24.072;2023-06-04T05:18:41;97736.47;;;15.81;38.80
35878;BME280;21982;49.804;24.072;2023-06-04T05:21:10;97620.63;;;15.24;38.44
35878;BME280;21982;49.804;24.072;2023-06-04T05:23:38;97748.47;;;16.10;38.55
35878;BME280;21982;49.804;24.072;2023-06-04T05:26:04;97745.56;;;16.63;38.15
35878;BME280;21982;49.804;24.072;2023-06-04T05:28:30;97751.34;;;17.16;37.34
35878;BME280;21982;49.804;24.072;2023-06-04T05:30:58;97755.06;;;17.65;36.84
35878;BME280;21982;49.804;24.072;2023-06-04T05:33:26;97720.28;;;17.95;36.35
35878;BME280;21982;49.804;24.072;2023-06-04T05:35:52;97603.25;;;17.77;35.75
35878;BME280;21982;49.804;24.072;2023-06-04T05:38:19;97665.78;;;18.72;34.97
35878;BME280;21982;49.804;24.072;2023-06-04T05:40:45;97750.16;;;19.53;34.56
35878;BME280;21982;49.804;24.072;2023-06-04T05:43:11;97701.44;;;19.61;34.02
35878;BME280;21982;49.804;24.072;2023-06-04T05:45:36;97752.47;;;20.36;33.50
35878;BME280;21982;49.804;24.072;2023-06-04T05:48:02;97759.22;;;20.79;33.05
35878;BME280;21982;49.804;24.072;2023-06-04T05:50:28;97760.66;;;20.87;32.78
35878;BME280;21982;49.804;24.072;2023-06-04T05:52:53;97697.84;;;20.81;32.44
35878;BME280;21982;49.804;24.072;2023-06-04T05:55:19;97731.56;;;21.51;32.06
35878;BME280;21982;49.804;24.072;2023-06-04T05:57:44;97759.63;;;21.71;31.19
35878;BME280;21982;49.804;24.072;2023-06-04T06:00:10;97734.72;;;21.64;31.64
35878;BME280;21982;49.804;24.072;2023-06-04T06:02:36;97665.28;;;21.71;30.62
35878;BME280;21982;49.804;24.072;2023-06-04T06:05:04;97699.56;;;22.15;30.22
35878;BME280;21982;49.804;24.072;2023-06-04T06:07:30;97717.41;;;22.69;30.24
35878;BME280;21982;49.804;24.072;2023-06-04T06:09:56;97665.84;;;22.71;30.00
35878;BME280;21982;49.804;24.072;2023-06-04T06:12:21;97734.16;;;23.30;29.68
35878;BME280;21982;49.804;24.072;2023-06-04T06:14:50;97597.75;;;22.64;29.06
35878;BME280;21982;49.804;24.072;2023-06-04T06:17:15;97630.88;;;23.18;29.15
35878;BME280;21982;49.804;24.072;2023-06-04T06:19:41;97713.50;;;24.03;28.88
35878;BME280;21982;49.804;24.072;2023-06-04T06:22:07;97758.72;;;24.81;28.38
35878;BME280;21982;49.804;24.072;2023-06-04T06:24:32;97699.66;;;24.78;28.04
35878;BME280;21982;49.804;24.072;2023-06-04T06:26:57;97755.50;;;25.50;27.71
35878;BME280;21982;49.804;24.072;2023-06-04T06:29:23;97765.13;;;26.27;26.87
35878;BME280;21982;49.804;24.072;2023-06-04T06:31:48;97724.41;;;26.32;26.71
35878;BME280;21982;49.804;24.072;2023-06-04T06:34:14;97611.09;;;25.98;26.14
35878;BME280;21982;49.804;24.072;2023-06-04T06:36:39;97732.22;;;26.88;25.96
35878;BME280;21982;49.804;24.072;2023-06-04T06:39:05;97747.78;;;27.79;24.99
35878;BME280;21982;49.804;24.072;2023-06-04T06:41:30;97749.03;;;28.58;24.00
35878;BME280;21982;49.804;24.072;2023-06-04T06:43:56;97727.59;;;28.52;23.27
35878;BME280;21982;49.804;24.072;2023-06-04T06:46:22;97673.97;;;27.62;23.82
35878;BME280;21982;49.804;24.072;2023-06-04T06:48:48;97730.28;;;28.09;23.53
35878;BME280;21982;49.804;24.072;2023-06-04T06:51:14;97730.53;;;28.13;22.93
35878;BME280;21982;49.804;24.072;2023-06-04T06:53:40;97739.00;;;28.35;22.99
35878;BME280;21982;49.804;24.072;2023-06-04T06:56:06;97704.94;;;27.66;23.13
35878;BME280;21982;49.804;24.072;2023-06-04T06:58:32;97755.81;;;27.36;23.02
35878;BME280;21982;49.804;24.072;2023-06-04T07:00:57;97675.56;;;26.22;23.53
35878;BME280;21982;49.804;24.072;2023-06-04T07:03:23;97760.66;;;26.56;23.91
35878;BME280;21982;49.804;24.072;2023-06-04T07:05:49;97683.69;;;25.32;24.27
35878;BME280;21982;49.804;24.072;2023-06-04T07:08:14;97722.94;;;25.80;24.00
35878;BME280;21982;49.804;24.072;2023-06-04T07:10:41;97712.09;;;25.70;23.71
35878;BME280;21982;49.804;24.072;2023-06-04T07:13:06;97768.31;;;26.93;23.34
35878;BME280;21982;49.804;24.072;2023-06-04T07:15:32;97772.31;;;27.74;22.90
35878;BME280;21982;49.804;24.072;2023-06-04T07:17:59;97743.56;;;27.92;22.12
35878;BME280;21982;49.804;24.072;2023-06-04T07:20:24;97690.34;;;28.05;22.21
35878;BME280;21982;49.804;24.072;2023-06-04T07:22:50;97720.34;;;27.99;21.85
35878;BME280;21982;49.804;24.072;2023-06-04T07:25:15;97750.63;;;28.17;22.27
35878;BME280;21982;49.804;24.072;2023-06-04T07:27:44;97767.53;;;28.80;21.72
35878;BME280;21982;49.804;24.072;2023-06-04T07:30:10;97773.16;;;28.27;21.85
35878;BME280;21982;49.804;24.072;2023-06-04T07:32:35;97727.59;;;27.56;22.00
35878;BME280;21982;49.804;24.072;2023-06-04T07:35:03;97774.28;;;27.00;22.39
35878;BME280;21982;49.804;24.072;2023-06-04T07:37:28;97706.13;;;26.87;22.31
35878;BME280;21982;49.804;24.072;2023-06-04T07:39:53;97687.13;;;27.50;21.67
35878;BME280;21982;49.804;24.072;2023-06-04T07:42:19;97712.50;;;28.17;21.32
35878;BME280;21982;49.804;24.072;2023-06-04T07:44:44;97762.69;;;28.11;21.24
35878;BME280;21982;49.804;24.072;2023-06-04T07:47:10;97724.56;;;27.63;21.37
35878;BME280;21982;49.804;24.072;2023-06-04T07:49:35;97759.59;;;27.69;21.30
35878;BME280;21982;49.804;24.072;2023-06-04T07:52:01;97671.50;;;27.36;21.39
35878;BME280;21982;49.804;24.072;2023-06-04T07:54:26;97763.28;;;27.79;21.46
35878;BME280;21982;49.804;24.072;2023-06-04T07:56:52;97699.34;;;26.45;22.42
35878;BME280;21982;49.804;24.072;2023-06-04T07:59:22;97763.75;;;26.84;22.30
35878;BME280;21982;49.804;24.072;2023-06-04T08:01:47;97769.44;;;27.31;21.74
35878;BME280;21982;49.804;24.072;2023-06-04T08:07:05;97630.09;;;27.40;21.54
35878;BME280;21982;49.804;24.072;2023-06-04T08:09:31;97560.25;;;26.82;21.25
35878;BME280;21982;49.804;24.072;2023-06-04T08:11:59;97606.44;;;26.48;21.46
35878;BME280;21982;49.804;24.072;2023-06-04T08:14:27;97702.41;;;26.73;22.13
35878;BME280;21982;49.804;24.072;2023-06-04T08:16:55;97706.81;;;27.08;21.56
35878;BME280;21982;49.804;24.072;2023-06-04T08:19:20;97773.56;;;27.58;21.38
35878;BME280;21982;49.804;24.072;2023-06-04T08:21:46;97764.34;;;27.83;21.54
35878;BME280;21982;49.804;24.072;2023-06-04T08:24:12;97722.44;;;27.84;20.99
35878;BME280;21982;49.804;24.072;2023-06-04T08:26:38;97758.50;;;27.71;21.36
35878;BME280;21982;49.804;24.072;2023-06-04T08:29:03;97771.31;;;27.94;21.20
35878;BME280;21982;49.804;24.072;2023-06-04T08:31:32;97774.41;;;28.35;20.97
35878;BME280;21982;49.804;24.072;2023-06-04T08:33:58;97766.78;;;28.56;21.12
35878;BME280;21982;49.804;24.072;2023-06-04T08:36:23;97651.78;;;28.40;20.92
35878;BME280;21982;49.804;24.072;2023-06-04T08:38:49;97741.84;;;28.67;20.55
35878;BME280;21982;49.804;24.072;2023-06-04T08:41:28;97752.88;;;28.57;21.03
35878;BME280;21982;49.804;24.072;2023-06-04T08:43:57;97764.81;;;28.61;21.09
35878;BME280;21982;49.804;24.072;2023-06-04T08:46:23;97774.19;;;28.74;21.28
35878;BME280;21982;49.804;24.072;2023-06-04T08:48:49;97787.00;;;28.74;21.08
35878;BME280;21982;49.804;24.072;2023-06-04T08:51:15;97764.44;;;28.01;21.37
35878;BME280;21982;49.804;24.072;2023-06-04T08:53:42;97771.47;;;27.45;21.67
35878;BME280;21982;49.804;24.072;2023-06-04T08:56:07;97665.03;;;26.10;22.39
35878;BME280;21982;49.804;24.072;2023-06-04T08:58:35;97767.06;;;27.54;22.26
35878;BME280;21982;49.804;24.072;2023-06-04T09:01:01;97646.06;;;27.75;21.48
35878;BME280;21982;49.804;24.072;2023-06-04T09:03:28;97520.25;;;28.02;20.76
35878;BME280;21982;49.804;24.072;2023-06-04T09:05:55;97675.31;;;29.52;19.74
35878;BME280;21982;49.804;24.072;2023-06-04T09:08:22;97453.63;;;28.13;19.97
35878;BME280;21982;49.804;24.072;2023-06-04T09:10:50;97721.25;;;29.91;19.67
35878;BME280;21982;49.804;24.072;2023-06-04T09:13:22;97764.69;;;30.07;20.23
35878;BME280;21982;49.804;24.072;2023-06-04T09:16:00;97668.41;;;28.76;20.31
35878;BME280;21982;49.804;24.072;2023-06-04T09:18:26;97732.00;;;29.42;20.42
35878;BME280;21982;49.804;24.072;2023-06-04T09:21:06;97762.34;;;28.84;20.76
35878;BME280;21982;49.804;24.072;2023-06-04T09:23:35;97744.91;;;28.18;21.22
35878;BME280;21982;49.804;24.072;2023-06-04T09:26:08;97703.97;;;28.85;20.81
35878;BME280;21982;49.804;24.072;2023-06-04T09:28:34;97762.38;;;30.14;19.98
35878;BME280;21982;49.804;24.072;2023-06-04T09:31:00;97755.06;;;30.23;19.72
35878;BME280;21982;49.804;24.072;2023-06-04T09:33:25;97743.91;;;29.78;19.64
35878;BME280;21982;49.804;24.072;2023-06-04T09:35:56;97743.72;;;29.42;19.90
35878;BME280;21982;49.804;24.072;2023-06-04T09:38:22;97642.25;;;28.94;19.47
35878;BME280;21982;49.804;24.072;2023-06-04T09:40:47;97724.03;;;28.94;20.20
35878;BME280;21982;49.804;24.072;2023-06-04T09:43:23;97757.38;;;29.23;20.17
35878;BME280;21982;49.804;24.072;2023-06-04T09:45:49;97773.16;;;30.19;19.89
35878;BME280;21982;49.804;24.072;2023-06-04T09:48:21;97755.16;;;30.31;19.24
35878;BME280;21982;49.804;24.072;2023-06-04T09:50:49;97448.47;;;28.12;19.63
35878;BME280;21982;49.804;24.072;2023-06-04T09:53:17;97727.13;;;29.98;19.53
35878;BME280;21982;49.804;24.072;2023-06-04T09:55:43;97573.19;;;28.66;19.32
35878;BME280;21982;49.804;24.072;2023-06-04T09:58:10;97759.38;;;29.50;19.30
35878;BME280;21982;49.804;24.072;2023-06-04T10:00:37;97768.69;;;29.49;19.84
35878;BME280;21982;49.804;24.072;2023-06-04T10:03:04;97724.22;;;29.49;19.26
35878;BME280;21982;49.804;24.072;2023-06-04T10:05:34;97734.00;;;30.37;18.89
35878;BME280;21982;49.804;24.072;2023-06-04T10:08:03;97758.59;;;31.00;18.21
35878;BME280;21982;49.804;24.072;2023-06-04T10:10:36;97758.63;;;30.87;18.22
35878;BME280;21982;49.804;24.072;2023-06-04T10:13:07;97755.34;;;29.48;18.67
35878;BME280;21982;49.804;24.072;2023-06-04T10:15:35;97768.94;;;28.78;19.89
35878;BME280;21982;49.804;24.072;2023-06-04T10:18:02;97764.88;;;29.13;19.39
35878;BME280;21982;49.804;24.072;2023-06-04T10:20:28;97691.38;;;28.51;19.78
35878;BME280;21982;49.804;24.072;2023-06-04T10:22:54;97748.69;;;29.54;19.29
35878;BME280;21982;49.804;24.072;2023-06-04T10:25:20;97720.44;;;29.91;19.33
35878;BME280;21982;49.804;24.072;2023-06-04T10:27:46;97672.78;;;29.42;19.56
35878;BME280;21982;49.804;24.072;2023-06-04T10:30:12;97718.13;;;28.87;19.86
35878;BME280;21982;49.804;24.072;2023-06-04T10:32:38;97696.91;;;28.03;20.73
35878;BME280;21982;49.804;24.072;2023-06-04T10:35:04;97738.47;;;28.09;20.63
35878;BME280;21982;49.804;24.072;2023-06-04T10:37:32;97625.59;;;27.54;21.01
35878;BME280;21982;49.804;24.072;2023-06-04T10:39:58;97726.16;;;27.69;21.27
35878;BME280;21982;49.804;24.072;2023-06-04T10:42:24;97750.81;;;28.01;21.06
35878;BME280;21982;49.804;24.072;2023-06-04T10:44:52;97695.13;;;28.13;21.02
35878;BME280;21982;49.804;24.072;2023-06-04T10:47:20;97724.66;;;29.56;20.16
35878;BME280;21982;49.804;24.072;2023-06-04T10:49:46;97732.38;;;30.36;20.05
35878;BME280;21982;49.804;24.072;2023-06-04T10:52:12;97690.50;;;31.13;19.48
35878;BME280;21982;49.804;24.072;2023-06-04T10:54:38;97706.38;;;31.86;18.95
35878;BME280;21982;49.804;24.072;2023-06-04T10:57:14;97715.03;;;31.49;19.10
35878;BME280;21982;49.804;24.072;2023-06-04T10:59:40;97714.72;;;31.81;18.99
35878;BME280;21982;49.804;24.072;2023-06-04T11:02:08;97687.44;;;32.16;18.23
35878;BME280;21982;49.804;24.072;2023-06-04T11:04:35;97670.22;;;32.24;18.38
35878;BME280;21982;49.804;24.072;2023-06-04T11:09:29;97732.56;;;32.10;18.34
35878;BME280;21982;49.804;24.072;2023-06-04T11:11:58;97740.63;;;31.75;18.55
35878;BME280;21982;49.804;24.072;2023-06-04T11:14:24;97728.78;;;31.97;18.61
35878;BME280;21982;49.804;24.072;2023-06-04T11:16:49;97607.75;;;31.78;18.27
35878;BME280;21982;49.804;24.072;2023-06-04T11:19:15;97712.97;;;32.34;18.58
35878;BME280;21982;49.804;24.072;2023-06-04T11:21:41;97664.50;;;31.63;18.48
35878;BME280;21982;49.804;24.072;2023-06-04T11:24:06;97691.75;;;30.93;18.90
35878;BME280;21982;49.804;24.072;2023-06-04T11:26:33;97705.28;;;30.26;19.42
35878;BME280;21982;49.804;24.072;2023-06-04T11:29:00;97685.25;;;28.78;20.44
35878;BME280;21982;49.804;24.072;2023-06-04T11:31:25;97725.75;;;28.47;21.11
35878;BME280;21982;49.804;24.072;2023-06-04T11:33:51;97697.91;;;29.39;20.73
35878;BME280;21982;49.804;24.072;2023-06-04T11:36:27;97690.56;;;30.49;19.79
35878;BME280;21982;49.804;24.072;2023-06-04T11:39:03;97723.44;;;31.61;18.94
35878;BME280;21982;49.804;24.072;2023-06-04T11:41:34;97691.22;;;31.89;18.57
35878;BME280;21982;49.804;24.072;2023-06-04T11:44:04;97701.41;;;31.66;18.71
35878;BME280;21982;49.804;24.072;2023-06-04T11:46:33;97616.16;;;30.52;19.19
35878;BME280;21982;49.804;24.072;2023-06-04T11:49:01;97718.94;;;31.34;19.20
35878;BME280;21982;49.804;24.072;2023-06-04T11:51:27;97714.09;;;31.93;18.87
35878;BME280;21982;49.804;24.072;2023-06-04T11:53:53;97709.25;;;32.29;18.96
35878;BME280;21982;49.804;24.072;2023-06-04T11:56:24;97690.91;;;31.28;18.95
35878;BME280;21982;49.804;24.072;2023-06-04T11:58:51;97715.78;;;30.46;19.60
35878;BME280;21982;49.804;24.072;2023-06-04T12:01:17;97729.59;;;30.14;19.74
35878;BME280;21982;49.804;24.072;2023-06-04T12:03:46;97720.03;;;30.25;19.83
35878;BME280;21982;49.804;24.072;2023-06-04T12:06:16;97687.50;;;30.01;20.02
35878;BME280;21982;49.804;24.072;2023-06-04T12:11:31;97700.97;;;30.61;19.77
35878;BME280;21982;49.804;24.072;2023-06-04T12:13:58;97710.50;;;30.63;19.83
35878;BME280;21982;49.804;24.072;2023-06-04T12:16:24;97718.06;;;30.53;19.77
35878;BME280;21982;49.804;24.072;2023-06-04T12:19:12;97667.47;;;29.78;19.96
35878;BME280;21982;49.804;24.072;2023-06-04T12:21:38;97727.13;;;29.98;20.49
35878;BME280;21982;49.804;24.072;2023-06-04T12:24:10;97687.38;;;29.32;20.62
35878;BME280;21982;49.804;24.072;2023-06-04T12:26:42;97710.91;;;28.96;20.80
35878;BME280;21982;49.804;24.072;2023-06-04T12:29:17;97635.13;;;28.42;20.89
35878;BME280;21982;49.804;24.072;2023-06-04T12:31:43;97717.59;;;27.47;21.56
35878;BME280;21982;49.804;24.072;2023-06-04T12:34:09;97624.91;;;26.51;22.30
35878;BME280;21982;49.804;24.072;2023-06-04T12:36:36;97717.13;;;27.40;22.03
35878;BME280;21982;49.804;24.072;2023-06-04T12:39:03;97501.34;;;26.49;21.78
35878;BME280;21982;49.804;24.072;2023-06-04T12:41:29;97705.16;;;28.17;21.55
35878;BME280;21982;49.804;24.072;2023-06-04T12:43:55;97716.72;;;27.56;21.80
35878;BME280;21982;49.804;24.072;2023-06-04T12:46:22;97638.47;;;26.51;23.01
35878;BME280;21982;49.804;24.072;2023-06-04T12:48:51;97564.00;;;25.69;23.30
35878;BME280;21982;49.804;24.072;2023-06-04T12:51:16;97692.44;;;26.09;23.84
35878;BME280;21982;49.804;24.072;2023-06-04T12:53:42;97477.84;;;24.71;23.86
35878;BME280;21982;49.804;24.072;2023-06-04T12:56:08;97549.84;;;25.13;23.78
35878;BME280;21982;49.804;24.072;2023-06-04T12:58:37;97667.91;;;25.59;24.29
35878;BME280;21982;49.804;24.072;2023-06-04T13:01:02;97709.06;;;25.92;24.33
35878;BME280;21982;49.804;24.072;2023-06-04T13:03:30;97707.09;;;26.08;24.23
35878;BME280;21982;49.804;24.072;2023-06-04T13:05:56;97610.25;;;25.28;24.31
35878;BME280;21982;49.804;24.072;2023-06-04T13:08:22;97542.56;;;24.78;24.56
35878;BME280;21982;49.804;24.072;2023-06-04T13:10:49;97709.91;;;25.87;24.49
35878;BME280;21982;49.804;24.072;2023-06-04T13:13:15;97709.63;;;25.84;24.56
35878;BME280;21982;49.804;24.072;2023-06-04T13:15:42;97705.03;;;25.74;24.80
35878;BME280;21982;49.804;24.072;2023-06-04T13:18:08;97653.63;;;24.98;25.00
35878;BME280;21982;49.804;24.072;2023-06-04T13:20:33;97709.44;;;24.99;25.46
35878;BME280;21982;49.804;24.072;2023-06-04T13:22:59;97656.06;;;24.74;25.70
35878;BME280;21982;49.804;24.072;2023-06-04T13:25:25;97708.09;;;25.12;25.48
35878;BME280;21982;49.804;24.072;2023-06-04T13:27:50;97615.69;;;24.37;25.81
35878;BME280;21982;49.804;24.072;2023-06-04T13:30:16;97666.03;;;24.43;25.79
35878;BME280;21982;49.804;24.072;2023-06-04T13:32:41;97616.38;;;24.02;26.29
35878;BME280;21982;49.804;24.072;2023-06-04T13:35:07;97653.75;;;24.10;26.32
35878;BME280;21982;49.804;24.072;2023-06-04T13:37:32;97691.13;;;24.18;26.68
35878;BME280;21982;49.804;24.072;2023-06-04T13:39:57;97561.50;;;23.34;26.92
35878;BME280;21982;49.804;24.072;2023-06-04T13:44:58;97511.00;;;22.82;26.82
35878;BME280;21982;49.804;24.072;2023-06-04T13:47:24;97645.81;;;23.83;27.13
35878;BME280;21982;49.804;24.072;2023-06-04T13:49:49;97675.69;;;24.19;26.82
35878;BME280;21982;49.804;24.072;2023-06-04T13:52:15;97623.16;;;24.04;26.95
35878;BME280;21982;49.804;24.072;2023-06-04T13:54:40;97682.81;;;24.40;26.86
35878;BME280;21982;49.804;24.072;2023-06-04T13:57:06;97598.22;;;23.92;27.03
35878;BME280;21982;49.804;24.072;2023-06-04T13:59:32;97616.66;;;24.05;27.03
35878;BME280;21982;49.804;24.072;2023-06-04T14:01:57;97680.69;;;24.57;26.99
35878;BME280;21982;49.804;24.072;2023-06-04T14:04:23;97528.13;;;23.70;27.04
35878;BME280;21982;49.804;24.072;2023-06-04T14:06:48;97613.19;;;24.20;26.74
35878;BME280;21982;49.804;24.072;2023-06-04T14:09:15;97680.13;;;24.45;26.81
35878;BME280;21982;49.804;24.072;2023-06-04T14:11:41;97682.28;;;24.43;26.95
35878;BME280;21982;49.804;24.072;2023-06-04T14:14:07;97656.19;;;24.12;26.92
35878;BME280;21982;49.804;24.072;2023-06-04T14:16:32;97674.88;;;24.13;27.32
35878;BME280;21982;49.804;24.072;2023-06-04T14:18:58;97577.88;;;23.64;27.20
35878;BME280;21982;49.804;24.072;2023-06-04T14:21:24;97624.31;;;24.24;26.96
35878;BME280;21982;49.804;24.072;2023-06-04T14:23:50;97679.38;;;25.05;26.85
35878;BME280;21982;49.804;24.072;2023-06-04T14:26:17;97639.00;;;24.99;26.27
35878;BME280;21982;49.804;24.072;2023-06-04T14:28:43;97680.16;;;24.81;26.69
35878;BME280;21982;49.804;24.072;2023-06-04T14:31:09;97674.09;;;24.28;27.31
35878;BME280;21982;49.804;24.072;2023-06-04T14:33:34;97662.00;;;23.73;27.81
35878;BME280;21982;49.804;24.072;2023-06-04T14:36:02;97492.78;;;22.67;27.79
35878;BME280;21982;49.804;24.072;2023-06-04T14:38:28;97612.03;;;23.33;27.92